Big Bear Station Historical Data
Daily Summary for January 16, 2017 Units:  English    Metric   Both
« Previous Day
Next Day »
Daily Weekly Monthly Yearly Custom
  High: Low: Average:
Temperature: 37.9 °F 19.2 °F 24.6 °F
Dew Point: 23.2 °F 8.5 °F 16 °F
Humidity: 97 % 31 % 73 %
Wind Speed: 4.2 mph 0.0 mph 0.7 mph
Wind Gust: -999.0 mph - -
Wind:- - SSW
Pressure: 23.46 in 23.41 in -
Precipitation: 0.05 in    
Historical Graphs
 
 
Tabular Data for January 16, 2017
Time Temperature Dew Point Pressure Wind Wind Speed Wind Gust Humidity Rainfall Rate (Hourly)
00:11 19.9 °F 18.9 °F 23.42 in Calm   -999.0 mph 96 % 0 in
00:26 19.8 °F 18.8 °F 23.42 in Calm   -999.0 mph 96 % 0 in
00:42 19.8 °F 18.8 °F 23.42 in Calm   -999.0 mph 96 % 0 in
00:57 19.2 °F 18.2 °F 23.42 in Calm   -999.0 mph 96 % 0 in
01:12 19.4 °F 18.4 °F 23.42 in Calm   -999.0 mph 96 % 0 in
01:27 19.4 °F 18.4 °F 23.42 in Calm   -999.0 mph 96 % 0 in
01:42 19.9 °F 18.9 °F 23.42 in Calm   -999.0 mph 96 % 0 in
01:58 20.3 °F 19.6 °F 23.42 in Calm   -999.0 mph 97 % 0 in
02:13 20.7 °F 20.0 °F 23.42 in Calm   -999.0 mph 97 % 0 in
02:28 20.5 °F 19.8 °F 23.42 in Calm   -999.0 mph 97 % 0 in
02:43 20.7 °F 20.0 °F 23.42 in Calm   -999.0 mph 97 % 0 in
02:59 20.7 °F 20.0 °F 23.42 in Calm   -999.0 mph 97 % 0 in
03:14 21.0 °F 20.3 °F 23.42 in Calm   -999.0 mph 97 % 0 in
03:29 21.0 °F 20.3 °F 23.41 in Calm   -999.0 mph 97 % 0 in
03:44 20.8 °F 20.1 °F 23.41 in Calm   -999.0 mph 97 % 0 in
03:59 20.7 °F 20.0 °F 23.41 in Calm   -999.0 mph 97 % 0 in
04:15 20.7 °F 20.0 °F 23.41 in Calm   -999.0 mph 97 % 0 in
04:30 20.5 °F 19.8 °F 23.41 in Calm   -999.0 mph 97 % 0 in
04:45 20.5 °F 19.8 °F 23.41 in Calm   -999.0 mph 97 % 0 in
05:00 20.5 °F 19.8 °F 23.41 in Calm   -999.0 mph 97 % 0 in
05:15 20.3 °F 19.6 °F 23.41 in Calm   -999.0 mph 97 % 0 in
05:31 20.3 °F 19.6 °F 23.41 in Calm   -999.0 mph 97 % 0 in
05:46 20.3 °F 19.6 °F 23.42 in Calm   -999.0 mph 97 % 0 in
06:01 20.3 °F 19.6 °F 23.42 in Calm   -999.0 mph 97 % 0 in
06:16 19.9 °F 18.9 °F 23.43 in Calm   -999.0 mph 96 % 0 in
06:31 19.8 °F 18.8 °F 23.43 in Calm   -999.0 mph 96 % 0 in
06:47 19.8 °F 18.8 °F 23.42 in Calm   -999.0 mph 96 % 0 in
07:02 20.1 °F 19.1 °F 23.43 in Calm   -999.0 mph 96 % 0 in
07:17 21.2 °F 20.5 °F 23.43 in Calm   -999.0 mph 97 % 0 in
07:32 22.5 °F 21.8 °F 23.44 in Calm   -999.0 mph 97 % 0 in
07:47 23.9 °F 23.2 °F 23.44 in Calm   -999.0 mph 97 % 0 in
13:38 37.9 °F 10.6 °F 23.42 in NW 2.2 mph -999.0 mph 32 % 0 in
13:53 37.2 °F 12.7 °F 23.41 in NNW 1.7 mph -999.0 mph 36 % 0 in
14:08 37.2 °F 10.0 °F 23.41 in East 1.7 mph -999.0 mph 32 % 0 in
14:24 37.0 °F 13.1 °F 23.41 in East 1.7 mph -999.0 mph 37 % 0 in
14:39 36.3 °F 8.5 °F 23.41 in Calm   -999.0 mph 31 % 0 in
14:54 36.1 °F 10.4 °F 23.41 in NW 2.2 mph -999.0 mph 34 % 0 in
15:09 35.2 °F 14.4 °F 23.42 in North 2.7 mph -999.0 mph 42 % 0 in
15:24 34.7 °F 15.0 °F 23.42 in Calm   -999.0 mph 44 % 0 in
15:40 33.6 °F 15.5 °F 23.42 in Calm   -999.0 mph 47 % 0 in
15:55 32.9 °F 15.8 °F 23.42 in Calm   -999.0 mph 49 % 0 in
16:10 32.0 °F 14.0 °F 23.42 in Calm   -999.0 mph 47 % 0 in
16:26 30.9 °F 16.6 °F 23.42 in Calm   -999.0 mph 55 % 0 in
16:41 29.8 °F 16.0 °F 23.42 in Calm   -999.0 mph 56 % 0 in
16:56 28.8 °F 16.3 °F 23.43 in SSW 2.2 mph -999.0 mph 59 % 0 in
17:11 28.6 °F 11.8 °F 23.44 in NW 2.7 mph -999.0 mph 49 % 0 in
17:27 27.3 °F 17.1 °F 23.44 in SSE 1.7 mph -999.0 mph 65 % 0 in
17:42 27.0 °F 16.8 °F 23.44 in Calm   -999.0 mph 65 % 0 in
17:57 26.4 °F 10.3 °F 23.45 in Calm   -999.0 mph 50 % 0 in
18:12 25.9 °F 15.0 °F 23.45 in SSE 1.7 mph -999.0 mph 63 % 0 in
18:28 25.0 °F 14.5 °F 23.45 in Calm   -999.0 mph 64 % 0 in
18:43 24.4 °F 13.6 °F 23.45 in Calm   -999.0 mph 63 % 0 in
18:58 25.5 °F 9.4 °F 23.45 in ESE 2.2 mph -999.0 mph 50 % 0 in
19:13 25.2 °F 11.7 °F 23.45 in SSW 1.1 mph -999.0 mph 56 % 0 in
19:28 24.8 °F 10.9 °F 23.45 in ESE 1.7 mph -999.0 mph 55 % 0 in
19:44 25.0 °F 12.3 °F 23.45 in SSE 2.2 mph -999.0 mph 58 % 0 in
19:59 25.0 °F 11.9 °F 23.46 in Calm   -999.0 mph 57 % 0 in
20:14 25.0 °F 11.5 °F 23.45 in NNW 1.1 mph -999.0 mph 56 % 0 in
20:29 25.2 °F 11.3 °F 23.46 in SE 1.1 mph -999.0 mph 55 % 0 in
20:44 25.0 °F 12.7 °F 23.46 in SE 2.7 mph -999.0 mph 59 % 0 in
21:00 24.4 °F 12.9 °F 23.46 in Calm   -999.0 mph 61 % 0 in
21:15 24.3 °F 13.9 °F 23.46 in ESE 1.1 mph -999.0 mph 64 % 0 in
21:31 25.2 °F 12.5 °F 23.46 in ESE 4.2 mph -999.0 mph 58 % 0 in
21:46 24.1 °F 14.0 °F 23.46 in Calm   -999.0 mph 65 % 0 in
22:01 23.2 °F 13.2 °F 23.46 in Calm   -999.0 mph 65 % 0 in
22:16 23.0 °F 13.7 °F 23.46 in SW 1.7 mph -999.0 mph 67 % 0 in
22:31 22.3 °F 13.3 °F 23.46 in Calm   -999.0 mph 68 % 0 in
22:47 21.7 °F 13.4 °F 23.46 in SSW 1.7 mph -999.0 mph 70 % 0 in
23:03 21.2 °F 12.9 °F 23.45 in Calm   -999.0 mph 70 % 0 in
23:18 21.4 °F 13.8 °F 23.46 in SSW 2.7 mph -999.0 mph 72 % 0 in
23:33 21.0 °F 14.3 °F 23.46 in SSW 2.2 mph -999.0 mph 75 % 0 in
23:48 20.3 °F 14.5 °F 23.46 in South 1.7 mph -999.0 mph 78 % 0 in
Big Bear CA Weather
Compliments of Weather Underground - 1.5 mb